createdAt,value
2023-04-06T00:01:43.821Z,1.60
2023-04-06T00:04:11.300Z,1.60
2023-04-06T00:06:38.495Z,1.70
2023-04-06T00:09:05.912Z,1.70
2023-04-06T00:11:33.308Z,1.70
2023-04-06T00:14:00.564Z,1.70
2023-04-06T00:16:30.335Z,1.70
2023-04-06T00:18:57.724Z,1.70
2023-04-06T00:21:24.870Z,1.70
2023-04-06T00:23:52.016Z,1.70
2023-04-06T00:26:19.725Z,1.60
2023-04-06T00:28:46.767Z,1.60
2023-04-06T00:31:13.828Z,1.70
2023-04-06T00:33:41.047Z,1.70
2023-04-06T00:36:08.455Z,1.70
2023-04-06T00:38:35.600Z,1.70
2023-04-06T00:41:04.674Z,1.70
2023-04-06T00:43:33.651Z,1.70
2023-04-06T00:46:00.956Z,1.70
2023-04-06T00:48:28.376Z,1.70
2023-04-06T00:50:55.721Z,1.70
2023-04-06T00:53:23.025Z,1.70
2023-04-06T00:55:50.054Z,1.60
2023-04-06T00:58:17.217Z,1.60
2023-04-06T01:00:44.398Z,1.60
2023-04-06T01:03:11.488Z,1.60
2023-04-06T01:05:41.764Z,1.60
2023-04-06T01:08:09.237Z,1.60
2023-04-06T01:10:36.617Z,1.60
2023-04-06T01:13:03.710Z,1.60
2023-04-06T01:15:31.489Z,1.50
2023-04-06T01:17:58.682Z,1.60
2023-04-06T01:20:25.812Z,1.60
2023-04-06T01:22:52.968Z,1.50
2023-04-06T01:25:20.118Z,1.50
2023-04-06T01:27:47.254Z,1.40
2023-04-06T01:30:14.612Z,1.50
2023-04-06T01:32:42.177Z,1.50
2023-04-06T01:35:09.668Z,1.50
2023-04-06T01:37:36.950Z,1.50
2023-04-06T01:40:04.573Z,1.50
2023-04-06T01:42:31.638Z,1.50
2023-04-06T01:44:58.783Z,1.50
2023-04-06T01:47:25.973Z,1.50
2023-04-06T01:49:53.097Z,1.50
2023-04-06T01:52:20.226Z,1.50
2023-04-06T01:54:47.373Z,1.50
2023-04-06T01:57:14.450Z,1.50
2023-04-06T01:59:41.666Z,1.50
2023-04-06T02:02:08.945Z,1.50
2023-04-06T02:04:36.047Z,1.60
2023-04-06T02:07:03.252Z,1.60
2023-04-06T02:09:30.712Z,1.60
2023-04-06T02:11:57.844Z,1.70
2023-04-06T02:14:27.051Z,1.60
2023-04-06T02:16:54.324Z,1.70
2023-04-06T02:19:21.692Z,1.70
2023-04-06T02:21:48.822Z,1.70
2023-04-06T02:24:16.280Z,1.70
2023-04-06T02:26:43.413Z,1.70
2023-04-06T02:29:11.098Z,1.70
2023-04-06T02:31:38.263Z,1.70
2023-04-06T02:34:05.455Z,1.60
2023-04-06T02:36:32.569Z,1.60
2023-04-06T02:38:59.759Z,1.60
2023-04-06T02:41:27.834Z,1.60
2023-04-06T02:43:54.911Z,1.60
2023-04-06T02:46:22.190Z,1.60
2023-04-06T02:48:49.280Z,1.50
2023-04-06T02:51:16.390Z,1.50
2023-04-06T02:53:43.453Z,1.50
2023-04-06T02:56:10.601Z,1.50
2023-04-06T02:58:38.091Z,1.60
2023-04-06T03:01:05.827Z,1.60
2023-04-06T03:03:33.105Z,1.60
2023-04-06T03:06:01.364Z,1.60
2023-04-06T03:08:28.497Z,1.60
2023-04-06T03:10:55.725Z,1.60
2023-04-06T03:13:22.849Z,1.60
2023-04-06T03:15:49.942Z,1.70
2023-04-06T03:18:17.090Z,1.80
2023-04-06T03:20:44.162Z,1.80
2023-04-06T03:23:11.413Z,1.80
2023-04-06T03:25:40.334Z,1.80
2023-04-06T03:28:07.550Z,1.90
2023-04-06T03:30:35.700Z,1.90
2023-04-06T03:33:03.004Z,1.90
2023-04-06T03:35:30.234Z,2.00
2023-04-06T03:37:57.309Z,2.00
2023-04-06T03:40:24.373Z,2.00
2023-04-06T03:42:51.938Z,2.10
2023-04-06T03:45:19.012Z,2.20
2023-04-06T03:47:46.231Z,2.10
2023-04-06T03:50:13.349Z,2.10
2023-04-06T03:52:40.530Z,2.10
2023-04-06T03:55:08.543Z,2.10
2023-04-06T03:57:35.666Z,2.10
2023-04-06T04:00:03.465Z,2.00
2023-04-06T04:02:30.899Z,2.00
2023-04-06T04:04:58.193Z,1.90
2023-04-06T04:07:25.501Z,1.80
2023-04-06T04:09:52.594Z,1.70
2023-04-06T04:12:19.873Z,1.70
2023-04-06T04:14:47.044Z,1.60
2023-04-06T04:17:14.376Z,1.60
2023-04-06T04:19:41.662Z,1.60
2023-04-06T04:22:08.736Z,1.60
2023-04-06T04:24:36.077Z,1.60
2023-04-06T04:27:03.209Z,1.60
2023-04-06T04:29:30.608Z,1.60
2023-04-06T04:31:57.967Z,1.60
2023-04-06T04:34:26.353Z,1.70
2023-04-06T04:36:54.165Z,1.70
2023-04-06T04:39:21.471Z,1.70
2023-04-06T04:41:48.554Z,1.80
2023-04-06T04:44:16.091Z,1.80
2023-04-06T04:46:43.107Z,1.80
2023-04-06T04:49:10.604Z,1.80
2023-04-06T04:51:38.043Z,1.90
2023-04-06T04:54:05.310Z,2.00
2023-04-06T04:56:32.447Z,2.10
2023-04-06T04:58:59.666Z,2.20
2023-04-06T05:01:26.820Z,2.30
2023-04-06T05:03:54.129Z,2.40
2023-04-06T05:06:21.366Z,2.50
2023-04-06T05:08:48.515Z,2.60
2023-04-06T05:11:15.656Z,2.70
2023-04-06T05:13:42.911Z,2.80
2023-04-06T05:16:10.172Z,2.90
2023-04-06T05:18:37.434Z,3.00
2023-04-06T05:21:05.551Z,3.10
2023-04-06T05:23:32.679Z,3.20
2023-04-06T05:26:00.055Z,3.30
2023-04-06T05:28:27.304Z,3.50
2023-04-06T05:30:54.719Z,3.60
2023-04-06T05:33:21.810Z,3.80
2023-04-06T05:35:49.035Z,4.00
2023-04-06T05:38:16.201Z,4.20
2023-04-06T05:40:43.733Z,4.30
2023-04-06T05:43:11.103Z,4.50
2023-04-06T05:45:38.188Z,4.60
2023-04-06T05:48:05.406Z,4.70
2023-04-06T05:50:32.614Z,4.80
2023-04-06T05:52:59.636Z,4.90
2023-04-06T05:55:26.884Z,4.90
2023-04-06T05:57:53.934Z,5.10
2023-04-06T06:00:21.184Z,5.10
2023-04-06T06:02:48.386Z,5.30
2023-04-06T06:05:15.699Z,5.30
2023-04-06T06:07:42.886Z,5.30
2023-04-06T06:10:10.571Z,5.20
2023-04-06T06:12:37.799Z,5.40
2023-04-06T06:15:05.574Z,5.60
2023-04-06T06:17:32.728Z,5.80
2023-04-06T06:20:00.124Z,6.00
2023-04-06T06:22:27.359Z,6.20
2023-04-06T06:24:54.606Z,6.50
2023-04-06T06:27:22.013Z,6.70
2023-04-06T06:29:49.132Z,6.90
2023-04-06T06:32:16.389Z,7.10
2023-04-06T06:34:43.614Z,7.20
2023-04-06T06:37:10.926Z,7.20
2023-04-06T06:39:38.118Z,7.30
2023-04-06T06:42:06.045Z,7.10
2023-04-06T06:44:33.289Z,7.20
2023-04-06T06:47:00.485Z,7.30
2023-04-06T06:49:27.558Z,7.50
2023-04-06T06:51:54.596Z,7.50
2023-04-06T06:54:22.115Z,7.50
2023-04-06T06:56:49.342Z,7.40
2023-04-06T06:59:17.349Z,7.30
2023-04-06T07:01:44.999Z,7.30
2023-04-06T07:04:12.316Z,7.30
2023-04-06T07:06:39.643Z,7.30
2023-04-06T07:09:06.886Z,7.20
2023-04-06T07:11:34.169Z,7.10
2023-04-06T07:14:01.506Z,7.00
2023-04-06T07:16:28.808Z,6.90
2023-04-06T07:18:57.105Z,7.00
2023-04-06T07:21:24.427Z,6.90
2023-04-06T07:23:52.012Z,6.90
2023-04-06T07:26:19.676Z,7.00
2023-04-06T07:28:46.959Z,7.00
2023-04-06T07:31:14.076Z,7.00
2023-04-06T07:33:41.555Z,7.00
2023-04-06T07:36:08.734Z,7.10
2023-04-06T07:38:35.933Z,7.10
2023-04-06T07:41:05.139Z,7.20
2023-04-06T07:43:32.403Z,7.20
2023-04-06T07:46:01.010Z,7.20
2023-04-06T07:48:28.159Z,7.40
2023-04-06T07:51:06.098Z,7.60
2023-04-06T07:53:33.308Z,7.60
2023-04-06T07:56:00.981Z,7.80
2023-04-06T07:58:28.122Z,7.90
2023-04-06T08:00:56.517Z,7.90
2023-04-06T08:03:26.852Z,7.90
2023-04-06T08:05:54.212Z,8.00
2023-04-06T08:08:22.373Z,7.90
2023-04-06T08:10:50.123Z,7.90
2023-04-06T08:13:17.547Z,8.00
2023-04-06T08:15:45.081Z,7.80
2023-04-06T08:18:12.393Z,7.60
2023-04-06T08:20:40.126Z,7.60
2023-04-06T08:23:08.008Z,7.70
2023-04-06T08:25:38.499Z,7.80
2023-04-06T08:28:05.908Z,8.00
2023-04-06T08:30:33.375Z,7.80
2023-04-06T08:33:00.630Z,7.90
2023-04-06T08:35:28.820Z,8.10
2023-04-06T08:37:56.024Z,7.90
2023-04-06T08:40:23.250Z,7.60
2023-04-06T08:42:57.794Z,7.40
2023-04-06T08:45:25.181Z,7.30
2023-04-06T08:47:53.697Z,7.00
2023-04-06T08:50:21.823Z,7.10
2023-04-06T08:52:50.038Z,7.30
2023-04-06T08:55:17.634Z,7.40
2023-04-06T08:57:46.064Z,7.40
2023-04-06T09:00:14.112Z,7.60
2023-04-06T09:02:45.551Z,7.50
2023-04-06T09:05:13.435Z,7.10
2023-04-06T09:07:41.030Z,7.00
2023-04-06T09:10:08.998Z,7.10
2023-04-06T09:12:36.601Z,7.20
2023-04-06T09:15:04.090Z,7.10
2023-04-06T09:17:34.669Z,7.30
2023-04-06T09:20:03.726Z,7.30
2023-04-06T09:22:41.020Z,7.20
2023-04-06T09:25:09.654Z,7.60
2023-04-06T09:27:39.871Z,7.80
2023-04-06T09:30:15.241Z,7.90
2023-04-06T09:32:50.210Z,8.10
2023-04-06T09:35:18.020Z,7.80
2023-04-06T09:37:45.771Z,8.00
2023-04-06T09:40:14.579Z,8.00
2023-04-06T09:42:51.131Z,7.80
2023-04-06T09:45:18.345Z,7.80
2023-04-06T09:47:46.846Z,7.70
2023-04-06T09:50:15.684Z,7.90
2023-04-06T09:52:52.403Z,8.10
2023-04-06T09:55:32.189Z,8.20
2023-04-06T09:58:10.567Z,8.10
2023-04-06T10:01:00.589Z,8.10
2023-04-06T10:03:31.486Z,7.80
2023-04-06T10:06:05.932Z,7.60
2023-04-06T10:08:36.347Z,7.70
2023-04-06T10:11:03.751Z,7.90
2023-04-06T10:13:30.926Z,8.20
2023-04-06T10:16:01.518Z,8.30
2023-04-06T10:18:29.163Z,8.20
2023-04-06T10:21:06.463Z,8.20
2023-04-06T10:23:51.790Z,8.30
2023-04-06T10:26:22.226Z,8.50
2023-04-06T10:28:50.784Z,8.70
2023-04-06T10:31:27.486Z,8.70
2023-04-06T10:34:02.890Z,8.80
2023-04-06T10:36:34.724Z,8.80
2023-04-06T10:39:04.903Z,8.80
2023-04-06T10:41:47.004Z,8.70
2023-04-06T10:44:24.756Z,8.40
2023-04-06T10:47:01.550Z,8.30
2023-04-06T10:49:28.669Z,8.40
2023-04-06T10:51:56.912Z,8.60
2023-04-06T10:54:26.325Z,8.80
2023-04-06T10:56:53.507Z,8.70
2023-04-06T10:59:22.833Z,9.00
2023-04-06T11:01:50.589Z,8.90
2023-04-06T11:04:22.222Z,9.00
2023-04-06T11:06:51.175Z,9.10
2023-04-06T11:09:29.356Z,9.10
2023-04-06T11:11:58.014Z,8.90
2023-04-06T11:14:25.442Z,9.10
2023-04-06T11:16:52.880Z,9.20
2023-04-06T11:19:20.495Z,9.40
2023-04-06T11:21:50.370Z,9.60
2023-04-06T11:24:23.005Z,9.70
2023-04-06T11:26:55.070Z,9.70
2023-04-06T11:29:32.862Z,9.80
2023-04-06T11:32:01.771Z,10.10
2023-04-06T11:34:31.337Z,10.40
2023-04-06T11:37:03.905Z,10.20
2023-04-06T11:39:31.707Z,10.00
2023-04-06T11:42:09.048Z,9.90
2023-04-06T11:44:36.590Z,9.80
2023-04-06T11:47:05.242Z,9.80
2023-04-06T11:49:33.898Z,9.90
2023-04-06T11:52:01.990Z,9.90
2023-04-06T11:54:39.402Z,9.70
2023-04-06T11:57:06.913Z,9.90
2023-04-06T11:59:35.107Z,9.90
2023-04-06T12:02:06.749Z,9.80
2023-04-06T12:04:34.899Z,9.80
2023-04-06T12:07:02.433Z,9.90
2023-04-06T12:09:29.604Z,9.90
2023-04-06T12:11:57.264Z,9.70
2023-04-06T12:14:24.829Z,9.50
2023-04-06T12:16:51.996Z,9.60
2023-04-06T12:19:19.238Z,9.60
2023-04-06T12:21:46.425Z,9.90
2023-04-06T12:24:13.659Z,9.70
2023-04-06T12:26:42.553Z,9.90
2023-04-06T12:29:09.682Z,9.90
2023-04-06T12:31:39.578Z,9.90
2023-04-06T12:34:07.052Z,9.90
2023-04-06T12:36:34.604Z,9.80
2023-04-06T12:39:02.202Z,9.60
2023-04-06T12:41:30.140Z,9.80
2023-04-06T12:43:57.565Z,9.80
2023-04-06T12:46:25.183Z,9.90
2023-04-06T12:48:56.199Z,10.00
2023-04-06T12:51:23.900Z,10.20
2023-04-06T12:53:51.506Z,10.10
2023-04-06T12:56:19.542Z,10.20
2023-04-06T12:58:46.961Z,10.20
2023-04-06T13:01:14.881Z,10.10
2023-04-06T13:03:42.928Z,10.00
2023-04-06T13:06:10.959Z,9.90
2023-04-06T13:08:39.408Z,10.00
2023-04-06T13:11:09.269Z,9.90
2023-04-06T13:13:37.396Z,9.80
2023-04-06T13:16:07.342Z,9.50
2023-04-06T13:18:35.980Z,9.60
2023-04-06T13:21:03.087Z,9.70
2023-04-06T13:23:30.215Z,9.90
2023-04-06T13:26:04.423Z,9.90
2023-04-06T13:28:32.389Z,10.10
2023-04-06T13:31:01.513Z,10.00
2023-04-06T13:33:29.465Z,10.00
2023-04-06T13:35:57.250Z,9.80
2023-04-06T13:38:27.683Z,10.00
2023-04-06T13:40:54.841Z,10.20
2023-04-06T13:43:22.050Z,10.30
2023-04-06T13:45:53.751Z,10.30
2023-04-06T13:48:21.076Z,10.40
2023-04-06T13:50:48.296Z,10.20
2023-04-06T13:53:15.715Z,10.20
2023-04-06T13:55:42.944Z,10.40
2023-04-06T13:58:10.310Z,10.50
2023-04-06T14:00:38.140Z,10.70
2023-04-06T14:03:07.297Z,10.70
2023-04-06T14:05:34.801Z,10.70
2023-04-06T14:08:02.865Z,10.60
2023-04-06T14:10:30.143Z,10.30
2023-04-06T14:12:57.910Z,10.20
2023-04-06T14:15:25.164Z,10.40
2023-04-06T14:17:52.808Z,10.40
2023-04-06T14:20:20.438Z,10.40
2023-04-06T14:22:47.925Z,10.30
2023-04-06T14:25:15.187Z,10.30
2023-04-06T14:27:42.269Z,10.40
2023-04-06T14:30:10.200Z,10.40
2023-04-06T14:32:38.628Z,10.30
2023-04-06T14:35:07.810Z,10.30
2023-04-06T14:37:35.418Z,10.10
2023-04-06T14:40:03.039Z,10.10
2023-04-06T14:42:30.218Z,10.00
2023-04-06T14:44:57.238Z,10.20
2023-04-06T14:47:24.415Z,10.20
2023-04-06T14:49:52.705Z,10.40
2023-04-06T14:52:19.744Z,10.50
2023-04-06T14:54:47.003Z,10.60
2023-04-06T14:57:14.166Z,10.50
2023-04-06T14:59:41.497Z,10.30
2023-04-06T15:02:08.735Z,10.10
2023-04-06T15:04:40.510Z,10.20
2023-04-06T15:07:08.564Z,10.30
2023-04-06T15:09:41.663Z,10.40
2023-04-06T15:12:11.892Z,10.30
2023-04-06T15:14:43.344Z,10.30
2023-04-06T15:17:11.667Z,10.30
2023-04-06T15:19:40.320Z,10.30
2023-04-06T15:22:07.601Z,10.20
2023-04-06T15:24:34.855Z,10.20
2023-04-06T15:27:02.469Z,10.30
2023-04-06T15:29:31.312Z,10.50
2023-04-06T15:31:58.636Z,10.50
2023-04-06T15:34:25.749Z,10.30
2023-04-06T15:36:53.944Z,10.50
2023-04-06T15:39:21.127Z,10.50
2023-04-06T15:41:48.402Z,10.70
2023-04-06T15:44:16.005Z,10.70
2023-04-06T15:46:42.993Z,10.60
2023-04-06T15:49:10.067Z,10.60
2023-04-06T15:51:37.598Z,10.60
2023-04-06T15:54:04.876Z,10.60
2023-04-06T15:56:33.853Z,10.50
2023-04-06T15:59:00.969Z,10.40
2023-04-06T16:01:28.178Z,10.50
2023-04-06T16:03:56.496Z,10.50
2023-04-06T16:06:23.835Z,10.60
2023-04-06T16:08:50.910Z,10.70
2023-04-06T16:11:18.102Z,10.70
2023-04-06T16:13:52.782Z,10.50
2023-04-06T16:16:23.963Z,10.30
2023-04-06T16:18:51.139Z,10.40
2023-04-06T16:21:18.919Z,10.30
2023-04-06T16:23:47.790Z,10.30
2023-04-06T16:26:16.723Z,10.20
2023-04-06T16:28:44.600Z,10.20
2023-04-06T16:31:20.328Z,10.10
2023-04-06T16:33:56.043Z,10.00
2023-04-06T16:36:28.033Z,10.00
2023-04-06T16:38:59.544Z,9.90
2023-04-06T16:41:31.229Z,9.90
2023-04-06T16:44:03.550Z,9.80
2023-04-06T16:46:38.342Z,9.80
2023-04-06T16:49:09.943Z,9.80
2023-04-06T16:51:43.538Z,9.80
2023-04-06T16:54:15.137Z,9.70
2023-04-06T16:56:46.924Z,9.70
2023-04-06T16:59:18.702Z,9.70
2023-04-06T17:01:50.497Z,9.70
2023-04-06T17:04:18.633Z,9.60
2023-04-06T17:06:49.973Z,9.60
2023-04-06T17:09:24.187Z,9.50
2023-04-06T17:11:56.862Z,9.50
2023-04-06T17:14:29.580Z,9.40
2023-04-06T17:17:01.118Z,9.30
2023-04-06T17:19:33.565Z,9.20
2023-04-06T17:22:03.641Z,9.20
2023-04-06T17:24:30.722Z,9.10
2023-04-06T17:26:57.788Z,9.00
2023-04-06T17:29:24.935Z,8.90
2023-04-06T17:31:52.033Z,8.80
2023-04-06T17:34:19.169Z,8.70
2023-04-06T17:36:46.493Z,8.60
2023-04-06T17:39:13.946Z,8.60
2023-04-06T17:41:41.056Z,8.50
2023-04-06T17:44:08.230Z,8.50
2023-04-06T17:46:35.307Z,8.40
2023-04-06T17:49:02.421Z,8.30
2023-04-06T17:51:29.592Z,8.20
2023-04-06T17:53:56.726Z,8.10
2023-04-06T17:56:24.422Z,7.90
2023-04-06T17:58:55.168Z,7.80
2023-04-06T18:01:22.781Z,7.70
2023-04-06T18:03:50.118Z,7.50
2023-04-06T18:06:18.035Z,7.40
2023-04-06T18:08:45.803Z,7.30
2023-04-06T18:11:18.686Z,7.20
2023-04-06T18:13:49.594Z,7.20
2023-04-06T18:16:20.332Z,7.10
2023-04-06T18:18:48.550Z,7.10
2023-04-06T18:21:16.339Z,6.90
2023-04-06T18:23:43.825Z,6.90
2023-04-06T18:26:18.034Z,7.00
2023-04-06T18:28:46.225Z,7.00
2023-04-06T18:31:13.714Z,7.00
2023-04-06T18:33:41.025Z,6.90
2023-04-06T18:36:09.881Z,6.80
2023-04-06T18:38:39.422Z,6.70
2023-04-06T18:41:07.183Z,6.70
2023-04-06T18:43:35.209Z,6.60
2023-04-06T18:46:02.356Z,6.60
2023-04-06T18:48:29.498Z,6.60
2023-04-06T18:51:03.302Z,6.60
2023-04-06T18:53:30.562Z,6.60
2023-04-06T18:55:58.166Z,6.50
2023-04-06T18:58:26.206Z,6.50
2023-04-06T19:00:57.661Z,6.40
2023-04-06T19:03:25.197Z,6.50
2023-04-06T19:05:53.139Z,6.50
2023-04-06T19:08:21.863Z,6.50
2023-04-06T19:10:52.937Z,6.50
2023-04-06T19:13:20.162Z,6.40
2023-04-06T19:15:47.307Z,6.30
2023-04-06T19:18:14.529Z,6.30
2023-04-06T19:20:44.536Z,6.20
2023-04-06T19:23:16.166Z,6.10
2023-04-06T19:25:45.261Z,6.00
2023-04-06T19:28:16.503Z,6.00
2023-04-06T19:30:47.687Z,5.90
2023-04-06T19:33:18.785Z,5.80
2023-04-06T19:35:46.136Z,5.80
2023-04-06T19:38:17.209Z,5.70
2023-04-06T19:40:47.962Z,5.70
2023-04-06T19:43:20.211Z,5.70
2023-04-06T19:45:50.862Z,5.70
2023-04-06T19:48:18.294Z,5.60
2023-04-06T19:50:46.612Z,5.60
2023-04-06T19:53:17.435Z,5.60
2023-04-06T19:55:48.023Z,5.60
2023-04-06T19:58:18.519Z,5.50
2023-04-06T20:00:48.504Z,5.40
2023-04-06T20:03:19.662Z,5.40
2023-04-06T20:05:47.202Z,5.40
2023-04-06T20:08:14.460Z,5.30
2023-04-06T20:10:41.732Z,5.30
2023-04-06T20:13:08.893Z,5.20
2023-04-06T20:15:39.953Z,5.30
2023-04-06T20:18:12.448Z,5.20
2023-04-06T20:20:44.863Z,5.20
2023-04-06T20:23:18.183Z,5.20
2023-04-06T20:25:52.856Z,5.10
2023-04-06T20:28:24.945Z,5.00
2023-04-06T20:30:53.785Z,5.00
2023-04-06T20:33:21.905Z,4.90
2023-04-06T20:35:59.777Z,4.90
2023-04-06T20:38:33.296Z,4.90
2023-04-06T20:41:02.307Z,4.90
2023-04-06T20:43:30.481Z,4.80
2023-04-06T20:46:03.433Z,4.70
2023-04-06T20:48:33.560Z,4.70
2023-04-06T20:51:05.441Z,4.70
2023-04-06T20:53:34.111Z,4.70
2023-04-06T20:56:08.930Z,4.60
2023-04-06T20:58:42.100Z,4.60
2023-04-06T21:01:20.638Z,4.70
2023-04-06T21:03:53.766Z,4.80
2023-04-06T21:06:29.314Z,4.90
2023-04-06T21:09:03.665Z,5.00
2023-04-06T21:11:34.341Z,4.90
2023-04-06T21:14:07.983Z,4.90
2023-04-06T21:16:40.648Z,4.90
2023-04-06T21:19:13.374Z,4.90
2023-04-06T21:21:41.261Z,4.90
2023-04-06T21:24:09.013Z,4.90
2023-04-06T21:26:41.739Z,4.90
2023-04-06T21:29:10.199Z,4.90
2023-04-06T21:31:44.947Z,5.00
2023-04-06T21:34:18.944Z,5.00
2023-04-06T21:36:51.019Z,5.00
2023-04-06T21:39:23.948Z,5.00
2023-04-06T21:41:57.642Z,5.00
2023-04-06T21:44:29.406Z,5.00
2023-04-06T21:47:01.655Z,4.90
2023-04-06T21:49:32.416Z,4.90
2023-04-06T21:52:01.414Z,4.90
2023-04-06T21:54:35.106Z,4.90
2023-04-06T21:57:03.279Z,4.80
2023-04-06T21:59:30.820Z,4.70
2023-04-06T22:01:57.952Z,4.60
2023-04-06T22:04:25.741Z,4.60
2023-04-06T22:06:53.028Z,4.50
2023-04-06T22:09:20.040Z,4.50
2023-04-06T22:11:47.197Z,4.40
2023-04-06T22:14:14.387Z,4.40
2023-04-06T22:16:41.637Z,4.30
2023-04-06T22:19:08.876Z,4.20
2023-04-06T22:21:35.908Z,4.20
2023-04-06T22:24:03.113Z,4.10
2023-04-06T22:26:30.628Z,4.00
2023-04-06T22:28:57.766Z,4.00
2023-04-06T22:31:24.905Z,3.90
2023-04-06T22:33:52.061Z,3.90
2023-04-06T22:36:19.226Z,3.80
2023-04-06T22:38:46.277Z,3.80
2023-04-06T22:41:13.338Z,3.70
2023-04-06T22:43:40.461Z,3.60
2023-04-06T22:46:07.506Z,3.60
2023-04-06T22:48:34.624Z,3.50
2023-04-06T22:51:01.731Z,3.50
2023-04-06T22:53:28.925Z,3.40
2023-04-06T22:55:56.239Z,3.40
2023-04-06T22:58:23.304Z,3.40
2023-04-06T23:00:50.553Z,3.40
2023-04-06T23:03:17.788Z,3.30
2023-04-06T23:05:45.851Z,3.30
2023-04-06T23:08:13.053Z,3.30
2023-04-06T23:10:42.227Z,3.20
2023-04-06T23:13:09.900Z,3.20
2023-04-06T23:15:37.254Z,3.10
2023-04-06T23:18:04.453Z,3.10
2023-04-06T23:20:31.602Z,3.10
2023-04-06T23:22:58.715Z,3.00
2023-04-06T23:25:26.309Z,3.00
2023-04-06T23:27:53.533Z,3.00
2023-04-06T23:30:20.608Z,3.00
2023-04-06T23:32:47.721Z,2.90
2023-04-06T23:35:14.916Z,2.90
2023-04-06T23:37:42.104Z,2.90
2023-04-06T23:40:09.647Z,2.90
2023-04-06T23:42:36.762Z,2.90
2023-04-06T23:45:04.942Z,2.80
2023-04-06T23:47:32.321Z,2.80
2023-04-06T23:49:59.516Z,2.80
2023-04-06T23:52:27.308Z,2.80
2023-04-06T23:54:54.426Z,2.70
2023-04-06T23:57:21.515Z,2.70
2023-04-06T23:59:48.745Z,2.70
